Craig E Philip — WDD4083 — position and weather

sailwx.info

Track history (hours):
 
Tides and Currents Weather Stations Pressure Air Temp Water Temp Dewpoint Dewpoint Depression Visibility Wind Speed Wind Dir Waves Ship Positions

Craig E Philip

Owner: Ingram Barge Company LLC, NASHVILLE, TN. More information available from US FCC via Universal Licensing System and Coast Guard Vessel Documentation Center.

Last reported at 2018-Jun-18 15:00 UTC. Time now 2018-Jun-18 15:01 UTC.
Position N 32°07' W 091°06'.

Length 61 m; draft 3 m.

Type: Towing. MMSI: 367139970.

Date/timePositionNaut miles runAvg speedWind from/ knotsBaromVisibWave heightAir tempDewpointWater temp
2018-Jun-18 15:00N 32°07' W 091°06'2 4.6
2018-Jun-18 14:30N 32°08' W 091°04'3 6.5
2018-Jun-18 14:00N 32°09' W 091°00'4 8.5
2018-Jun-18 13:30N 32°13' W 090°59'4 8.1
2018-Jun-18 13:00N 32°16' W 090°57'3 5.3
2018-Jun-18 12:29N 32°18' W 090°55'0 0.4
2018-Jun-18 12:00N 32°18' W 090°55'2 4.9
2018-Jun-18 11:30N 32°21' W 090°56'4 7.5
2018-Jun-18 11:00N 32°21' W 090°60'4 7.2
2018-Jun-18 10:30N 32°25' W 090°60'4 7.8
2018-Jun-18 10:00N 32°26' W 091°04'4 7.5
2018-Jun-18 09:30N 32°29' W 091°07'4 7.9
2018-Jun-18 08:59N 32°33' W 091°06'4 7.7
2018-Jun-18 08:30N 32°36' W 091°09'4 7.3
2018-Jun-18 07:59N 32°40' W 091°08'5 7.1
2018-Jun-18 07:15N 32°43' W 091°03'4 7.2
2018-Jun-18 06:39N 32°44' W 091°08'3 7.3
2018-Jun-18 06:18N 32°46' W 091°10'  
Track history (hours):
 
Tides and Currents Weather Stations Pressure Air Temp Water Temp Dewpoint Dewpoint Depression Visibility Wind Speed Wind Dir Waves Ship Positions

Craig E Philip

Owner: Ingram Barge Company LLC, NASHVILLE, TN. More information available from US FCC via Universal Licensing System and Coast Guard Vessel Documentation Center.

Last reported at 2018-Jun-18 15:00 UTC. Time now 2018-Jun-18 15:01 UTC.
Position N 32°07' W 091°06'.

Length 61 m; draft 3 m.

Type: Towing. MMSI: 367139970.

Date/timePositionNaut miles runAvg speedWind from/ knotsBaromVisibWave heightAir tempDewpointWater temp
2018-Jun-18 15:00N 32°07' W 091°06'2 4.6
2018-Jun-18 14:30N 32°08' W 091°04'3 6.5
2018-Jun-18 14:00N 32°09' W 091°00'4 8.5
2018-Jun-18 13:30N 32°13' W 090°59'4 8.1
2018-Jun-18 13:00N 32°16' W 090°57'3 5.3
2018-Jun-18 12:29N 32°18' W 090°55'0 0.4
2018-Jun-18 12:00N 32°18' W 090°55'2 4.9
2018-Jun-18 11:30N 32°21' W 090°56'4 7.5
2018-Jun-18 11:00N 32°21' W 090°60'4 7.2
2018-Jun-18 10:30N 32°25' W 090°60'4 7.8
2018-Jun-18 10:00N 32°26' W 091°04'4 7.5
2018-Jun-18 09:30N 32°29' W 091°07'4 7.9
2018-Jun-18 08:59N 32°33' W 091°06'4 7.7
2018-Jun-18 08:30N 32°36' W 091°09'4 7.3
2018-Jun-18 07:59N 32°40' W 091°08'5 7.1
2018-Jun-18 07:15N 32°43' W 091°03'4 7.2
2018-Jun-18 06:39N 32°44' W 091°08'3 7.3
2018-Jun-18 06:18N 32°46' W 091°10'  

Dump ship's entire track history